createdAt,value
2018-03-23T00:00:12.623Z,62.90
2018-03-23T00:02:41.097Z,63.00
2018-03-23T00:05:09.306Z,63.10
2018-03-23T00:07:38.045Z,63.20
2018-03-23T00:10:08.038Z,63.10
2018-03-23T00:12:37.094Z,63.10
2018-03-23T00:15:04.797Z,63.00
2018-03-23T00:17:33.682Z,63.70
2018-03-23T00:20:01.401Z,62.90
2018-03-23T00:22:29.579Z,62.90
2018-03-23T00:24:57.683Z,62.90
2018-03-23T00:27:27.427Z,62.70
2018-03-23T00:29:55.788Z,62.60
2018-03-23T00:32:24.615Z,62.50
2018-03-23T00:34:52.606Z,62.50
2018-03-23T00:37:21.262Z,62.30
2018-03-23T00:39:50.211Z,61.80
2018-03-23T00:42:17.864Z,61.70
2018-03-23T00:44:46.473Z,60.90
2018-03-23T00:47:14.619Z,60.40
2018-03-23T00:49:43.549Z,61.50
2018-03-23T00:52:11.601Z,61.40
2018-03-23T00:54:39.642Z,61.40
2018-03-23T00:57:07.722Z,61.30
2018-03-23T00:59:35.889Z,61.20
2018-03-23T01:02:04.447Z,61.20
2018-03-23T01:04:32.629Z,61.40
2018-03-23T01:07:00.323Z,61.20
2018-03-23T01:09:27.890Z,60.90
2018-03-23T01:11:56.188Z,60.70
2018-03-23T01:14:25.188Z,60.60
2018-03-23T01:16:54.185Z,60.60
2018-03-23T01:19:21.853Z,60.50
2018-03-23T01:21:49.464Z,60.70
2018-03-23T01:24:17.033Z,61.80
2018-03-23T01:26:44.646Z,61.20
2018-03-23T01:29:13.002Z,61.30
2018-03-23T01:31:40.651Z,61.30
2018-03-23T01:34:08.213Z,61.30
2018-03-23T01:36:35.882Z,61.20
2018-03-23T01:39:04.226Z,61.10
2018-03-23T01:41:31.790Z,61.10
2018-03-23T01:43:59.378Z,61.10
2018-03-23T01:46:27.713Z,61.30
2018-03-23T01:48:55.325Z,61.20
2018-03-23T01:51:22.927Z,61.30
2018-03-23T01:53:51.263Z,61.30
2018-03-23T01:56:18.928Z,61.30
2018-03-23T01:58:46.588Z,61.40
2018-03-23T02:01:14.187Z,62.40
2018-03-23T02:03:42.538Z,61.60
2018-03-23T02:06:10.140Z,61.50
2018-03-23T02:08:38.626Z,61.60
2018-03-23T02:11:06.260Z,61.60
2018-03-23T02:13:34.615Z,61.70
2018-03-23T02:16:02.214Z,61.70
2018-03-23T02:18:30.619Z,61.60
2018-03-23T02:20:59.958Z,61.50
2018-03-23T02:23:28.097Z,61.40
2018-03-23T02:25:55.685Z,61.50
2018-03-23T02:28:24.093Z,62.00
2018-03-23T02:30:51.761Z,61.80
2018-03-23T02:33:20.091Z,62.10
2018-03-23T02:35:47.707Z,62.00
2018-03-23T02:38:16.083Z,62.20
2018-03-23T02:40:43.816Z,62.10
2018-03-23T02:43:11.444Z,62.00
2018-03-23T02:45:40.673Z,61.80
2018-03-23T02:48:08.544Z,61.70
2018-03-23T02:50:38.170Z,61.60
2018-03-23T02:53:05.788Z,61.40
2018-03-23T02:55:33.367Z,61.60
2018-03-23T02:58:00.978Z,61.60
2018-03-23T03:00:29.347Z,62.00
2018-03-23T03:02:56.907Z,61.90
2018-03-23T03:05:24.464Z,62.00
2018-03-23T03:07:52.036Z,62.10
2018-03-23T03:10:19.610Z,62.00
2018-03-23T03:12:47.874Z,62.10
2018-03-23T03:15:15.498Z,62.10
2018-03-23T03:17:43.149Z,62.20
2018-03-23T03:20:10.744Z,62.30
2018-03-23T03:22:39.506Z,62.30
2018-03-23T03:25:07.093Z,62.30
2018-03-23T03:27:34.663Z,62.40
2018-03-23T03:30:02.286Z,62.30
2018-03-23T03:32:30.638Z,62.50
2018-03-23T03:34:58.274Z,62.40
2018-03-23T03:37:26.841Z,62.50
2018-03-23T03:39:55.155Z,62.40
2018-03-23T03:42:22.749Z,62.20
2018-03-23T03:44:50.382Z,62.20
2018-03-23T03:47:18.762Z,62.40
2018-03-23T03:49:47.093Z,63.20
2018-03-23T03:52:15.685Z,62.30
2018-03-23T03:54:43.279Z,62.20
2018-03-23T03:57:11.653Z,62.20
2018-03-23T03:59:39.228Z,62.20
2018-03-23T04:02:06.834Z,62.20
2018-03-23T04:04:34.470Z,62.40
2018-03-23T04:07:02.101Z,62.30
2018-03-23T04:09:30.446Z,62.30
2018-03-23T04:11:58.053Z,62.20
2018-03-23T04:14:25.635Z,62.20
2018-03-23T04:16:53.204Z,62.20
2018-03-23T04:19:20.778Z,62.30
2018-03-23T04:21:49.145Z,62.40
2018-03-23T04:24:16.744Z,62.30
2018-03-23T04:26:45.535Z,62.20
2018-03-23T04:29:13.207Z,62.20
2018-03-23T04:31:40.798Z,62.20
2018-03-23T04:34:09.134Z,62.30
2018-03-23T04:36:36.699Z,62.10
2018-03-23T04:39:04.331Z,62.20
2018-03-23T04:41:32.658Z,62.00
2018-03-23T04:44:00.239Z,62.00
2018-03-23T04:46:27.827Z,62.00
2018-03-23T04:48:56.108Z,62.00
2018-03-23T04:51:23.695Z,62.80
2018-03-23T04:53:51.275Z,61.90
2018-03-23T04:56:19.634Z,62.10
2018-03-23T04:58:47.239Z,62.10
2018-03-23T05:01:14.848Z,62.20
2018-03-23T05:03:42.436Z,62.30
2018-03-23T05:06:10.037Z,62.30
2018-03-23T05:08:38.964Z,62.30
2018-03-23T05:11:06.561Z,62.30
2018-03-23T05:13:34.887Z,62.50
2018-03-23T05:16:02.490Z,62.40
2018-03-23T05:18:30.055Z,63.20
2018-03-23T05:20:57.643Z,62.30
2018-03-23T05:23:25.251Z,62.20
2018-03-23T05:25:53.605Z,62.00
2018-03-23T05:28:21.237Z,62.00
2018-03-23T05:30:48.847Z,61.90
2018-03-23T05:33:16.495Z,61.90
2018-03-23T05:35:44.062Z,61.80
2018-03-23T05:38:11.638Z,61.80
2018-03-23T05:40:40.427Z,61.80
2018-03-23T05:43:08.018Z,61.90
2018-03-23T05:45:36.598Z,62.10
2018-03-23T05:48:04.173Z,62.00
2018-03-23T05:50:31.750Z,61.90
2018-03-23T05:52:59.374Z,61.80
2018-03-23T05:55:28.481Z,61.90
2018-03-23T05:57:59.564Z,62.00
2018-03-23T06:00:27.177Z,62.00
2018-03-23T06:02:54.792Z,62.00
2018-03-23T06:05:23.144Z,62.30
2018-03-23T06:07:50.743Z,62.20
2018-03-23T06:10:19.083Z,62.50
2018-03-23T06:12:46.654Z,62.30
2018-03-23T06:15:14.241Z,62.20
2018-03-23T06:17:41.859Z,62.40
2018-03-23T06:20:10.221Z,62.50
2018-03-23T06:22:39.041Z,62.40
2018-03-23T06:25:07.373Z,62.50
2018-03-23T06:27:35.011Z,62.40
2018-03-23T06:30:02.615Z,62.60
2018-03-23T06:32:30.235Z,62.60
2018-03-23T06:34:58.641Z,62.90
2018-03-23T06:37:26.267Z,63.00
2018-03-23T06:39:53.876Z,63.10
2018-03-23T06:42:21.462Z,63.10
2018-03-23T06:44:51.008Z,63.40
2018-03-23T06:47:19.060Z,63.20
2018-03-23T06:49:47.394Z,63.50
2018-03-23T06:52:15.001Z,63.40
2018-03-23T06:54:42.558Z,63.50
2018-03-23T06:57:10.118Z,63.30
2018-03-23T06:59:38.079Z,63.30
2018-03-23T07:02:05.658Z,63.30
2018-03-23T07:04:33.223Z,63.10
2018-03-23T07:07:02.003Z,62.90
2018-03-23T07:09:30.343Z,63.50
2018-03-23T07:11:57.955Z,63.20
2018-03-23T07:14:26.285Z,63.40
2018-03-23T07:16:54.282Z,63.40
2018-03-23T07:19:21.970Z,63.50
2018-03-23T07:21:49.626Z,63.30
2018-03-23T07:24:17.284Z,63.20
2018-03-23T07:26:44.867Z,63.10
2018-03-23T07:29:12.439Z,63.10
2018-03-23T07:31:40.379Z,63.10
2018-03-23T07:34:08.721Z,63.10
2018-03-23T07:36:36.369Z,63.00
2018-03-23T07:39:03.982Z,63.20
2018-03-23T07:41:31.538Z,63.20
2018-03-23T07:43:59.145Z,63.30
2018-03-23T07:46:26.756Z,63.50
2018-03-23T07:48:54.601Z,64.40
2018-03-23T07:51:22.245Z,63.50
2018-03-23T07:53:49.877Z,63.50
2018-03-23T07:56:17.570Z,63.20
2018-03-23T07:58:45.132Z,63.30
2018-03-23T08:01:12.828Z,63.20
2018-03-23T08:03:40.451Z,63.20
2018-03-23T08:06:08.813Z,63.50
2018-03-23T08:08:36.952Z,63.40
2018-03-23T08:11:04.614Z,63.70
2018-03-23T08:13:33.138Z,63.70
2018-03-23T08:16:00.737Z,63.70
2018-03-23T08:18:28.311Z,63.70
2018-03-23T08:20:55.907Z,63.70
2018-03-23T08:23:24.252Z,63.70
2018-03-23T08:25:51.848Z,63.70
2018-03-23T08:28:20.242Z,63.80
2018-03-23T08:30:47.852Z,63.90
2018-03-23T08:33:15.474Z,63.90
2018-03-23T08:35:44.580Z,65.00
2018-03-23T08:38:12.152Z,63.90
2018-03-23T08:40:39.735Z,64.00
2018-03-23T08:43:07.318Z,64.10
2018-03-23T08:45:34.888Z,64.40
2018-03-23T08:48:02.475Z,64.50
2018-03-23T08:50:30.848Z,65.00
2018-03-23T08:52:58.441Z,65.00
2018-03-23T08:55:27.238Z,64.80
2018-03-23T08:57:55.664Z,65.10
2018-03-23T09:00:23.312Z,65.00
2018-03-23T09:02:51.712Z,65.30
2018-03-23T09:05:19.293Z,65.30
2018-03-23T09:07:46.878Z,65.30
2018-03-23T09:10:14.492Z,65.30
2018-03-23T09:12:42.081Z,65.30
2018-03-23T09:15:10.438Z,65.30
2018-03-23T09:17:38.878Z,65.30
2018-03-23T09:20:07.246Z,65.00
2018-03-23T09:22:34.835Z,64.90
2018-03-23T09:25:03.154Z,64.90
2018-03-23T09:27:30.728Z,64.70
2018-03-23T09:29:58.328Z,64.70
2018-03-23T09:32:27.189Z,64.40
2018-03-23T09:34:54.872Z,64.10
2018-03-23T09:37:22.555Z,63.60
2018-03-23T09:39:50.159Z,63.70
2018-03-23T09:42:17.743Z,64.00
2018-03-23T09:44:45.318Z,64.10
2018-03-23T09:47:12.909Z,64.20
2018-03-23T09:49:41.280Z,63.70
2018-03-23T09:52:08.888Z,63.70
2018-03-23T09:54:36.472Z,63.80
2018-03-23T09:57:05.139Z,63.60
2018-03-23T09:59:33.521Z,63.50
2018-03-23T10:02:01.159Z,63.50
2018-03-23T10:04:28.799Z,63.40
2018-03-23T10:06:56.742Z,63.70
2018-03-23T10:09:24.530Z,63.90
2018-03-23T10:11:52.168Z,63.80
2018-03-23T10:14:20.547Z,64.10
2018-03-23T10:16:48.163Z,64.00
2018-03-23T10:19:15.739Z,64.00
2018-03-23T10:21:43.443Z,64.10
2018-03-23T10:24:11.051Z,64.10
2018-03-23T10:26:38.634Z,63.80
2018-03-23T10:29:06.287Z,63.70
2018-03-23T10:31:34.609Z,63.90
2018-03-23T10:34:02.231Z,63.80
2018-03-23T10:36:29.795Z,63.90
2018-03-23T10:38:57.437Z,63.90
2018-03-23T10:41:25.021Z,64.00
2018-03-23T10:43:53.428Z,63.80
2018-03-23T10:46:21.782Z,63.50
2018-03-23T10:48:49.361Z,63.40
2018-03-23T10:51:16.940Z,63.60
2018-03-23T10:53:45.278Z,63.90
2018-03-23T10:56:12.879Z,63.80
2018-03-23T10:58:40.459Z,63.90
2018-03-23T11:01:13.663Z,63.70
2018-03-23T11:03:41.269Z,63.50
2018-03-23T11:06:09.598Z,63.30
2018-03-23T11:08:37.167Z,63.10
2018-03-23T11:11:04.797Z,63.10
2018-03-23T11:14:56.094Z,63.00
2018-03-23T11:17:23.654Z,62.90
2018-03-23T11:19:51.299Z,63.20
2018-03-23T11:22:18.871Z,63.00
2018-03-23T11:24:46.622Z,63.10
2018-03-23T11:27:14.979Z,62.70
2018-03-23T11:29:42.615Z,62.70
2018-03-23T11:32:10.195Z,62.70
2018-03-23T11:34:38.171Z,62.40
2018-03-23T11:37:05.822Z,62.40
2018-03-23T11:42:49.250Z,61.90
2018-03-23T11:45:17.132Z,62.10
2018-03-23T11:47:45.962Z,61.60
2018-03-23T11:50:13.588Z,61.70
2018-03-23T11:54:30.970Z,61.30
2018-03-23T11:56:58.576Z,61.40
2018-03-23T11:59:26.174Z,61.40
2018-03-23T12:01:53.780Z,60.90
2018-03-23T12:04:21.374Z,61.40
2018-03-23T12:06:49.003Z,61.60
2018-03-23T12:09:16.563Z,61.90
2018-03-23T12:11:45.022Z,62.10
2018-03-23T12:14:12.598Z,62.00
2018-03-23T12:16:40.165Z,61.60
2018-03-23T12:19:07.747Z,60.90
2018-03-23T12:21:36.186Z,61.60
2018-03-23T12:24:05.125Z,61.30
2018-03-23T12:26:32.730Z,61.40
2018-03-23T12:29:01.074Z,61.20
2018-03-23T12:31:28.698Z,61.20
2018-03-23T12:33:56.264Z,61.30
2018-03-23T12:36:24.661Z,61.00
2018-03-23T12:38:53.004Z,60.90
2018-03-23T12:41:20.596Z,60.70
2018-03-23T12:43:48.162Z,60.90
2018-03-23T12:46:16.523Z,60.60
2018-03-23T12:48:44.168Z,60.40
2018-03-23T12:51:12.747Z,60.40
2018-03-23T12:53:41.106Z,60.10
2018-03-23T12:56:09.586Z,59.90
2018-03-23T12:58:37.343Z,60.20
2018-03-23T13:01:05.873Z,60.10
2018-03-23T13:03:34.203Z,59.90
2018-03-23T13:06:01.876Z,59.80
2018-03-23T13:08:29.536Z,59.60
2018-03-23T13:10:59.020Z,59.50
2018-03-23T13:13:26.745Z,59.40
2018-03-23T13:15:55.288Z,59.40
2018-03-23T13:18:22.980Z,59.10
2018-03-23T13:20:50.791Z,58.80
2018-03-23T13:23:18.560Z,58.60
2018-03-23T13:25:46.465Z,58.50
2018-03-23T13:28:14.100Z,58.20
2018-03-23T13:30:43.270Z,58.00
2018-03-23T13:33:12.527Z,58.00
2018-03-23T13:35:40.913Z,58.40
2018-03-23T13:38:09.391Z,58.10
2018-03-23T13:40:37.810Z,58.40
2018-03-23T13:43:06.589Z,58.40
2018-03-23T13:45:34.316Z,58.30
2018-03-23T13:48:01.991Z,58.10
2018-03-23T13:50:29.624Z,58.10
2018-03-23T13:52:57.950Z,58.10
2018-03-23T13:55:25.654Z,57.90
2018-03-23T13:57:53.220Z,58.10
2018-03-23T14:00:26.534Z,58.00
2018-03-23T14:02:54.894Z,58.20
2018-03-23T14:05:22.552Z,58.00
2018-03-23T14:07:50.166Z,58.00
2018-03-23T14:10:19.011Z,57.80
2018-03-23T14:12:47.350Z,57.80
2018-03-23T14:15:14.964Z,57.80
2018-03-23T14:17:42.611Z,57.70
2018-03-23T14:20:10.980Z,57.80
2018-03-23T14:22:39.923Z,57.80
2018-03-23T14:25:07.862Z,58.30
2018-03-23T14:27:35.518Z,57.80
2018-03-23T14:30:03.201Z,57.80
2018-03-23T14:32:30.807Z,57.80
2018-03-23T14:34:58.778Z,57.70
2018-03-23T14:37:26.883Z,57.70
2018-03-23T14:39:54.532Z,57.60
2018-03-23T14:42:23.022Z,57.50
2018-03-23T14:44:50.640Z,57.70
2018-03-23T14:47:22.829Z,58.00
2018-03-23T14:49:54.015Z,57.80
2018-03-23T14:52:21.715Z,58.00
2018-03-23T14:54:49.350Z,58.00
2018-03-23T14:57:17.027Z,58.00
2018-03-23T14:59:45.499Z,58.10
2018-03-23T15:02:13.205Z,58.00
2018-03-23T15:04:42.142Z,58.10
2018-03-23T15:07:09.838Z,58.10
2018-03-23T15:09:37.863Z,58.10
2018-03-23T15:12:05.511Z,58.20
2018-03-23T15:14:33.129Z,58.10
2018-03-23T15:17:00.752Z,58.20
2018-03-23T15:19:28.349Z,58.20
2018-03-23T15:21:55.927Z,58.10
2018-03-23T15:24:23.680Z,58.30
2018-03-23T15:26:51.851Z,57.90
2018-03-23T15:29:23.825Z,58.30
2018-03-23T15:31:53.601Z,58.40
2018-03-23T15:34:25.316Z,58.50
2018-03-23T15:36:53.832Z,58.40
2018-03-23T15:39:22.587Z,58.50
2018-03-23T15:41:51.644Z,58.40
2018-03-23T15:44:19.305Z,58.50
2018-03-23T15:46:47.917Z,58.50
2018-03-23T15:49:16.532Z,58.50
2018-03-23T15:51:44.882Z,58.50
2018-03-23T15:54:13.303Z,58.50
2018-03-23T15:56:42.045Z,58.50
2018-03-23T15:59:10.565Z,58.40
2018-03-23T16:01:38.544Z,58.40
2018-03-23T16:04:06.247Z,58.50
2018-03-23T16:06:34.188Z,58.60
2018-03-23T16:09:03.056Z,59.10
2018-03-23T16:11:30.742Z,58.60
2018-03-23T16:13:58.826Z,58.70
2018-03-23T16:16:26.520Z,58.60
2018-03-23T16:18:54.128Z,58.50
2018-03-23T16:21:21.722Z,58.50
2018-03-23T16:23:50.110Z,58.90
2018-03-23T16:26:18.487Z,58.80
2018-03-23T16:28:46.288Z,58.60
2018-03-23T16:31:15.137Z,58.70
2018-03-23T16:33:42.851Z,58.70
2018-03-23T16:36:11.736Z,59.20
2018-03-23T16:38:39.775Z,58.80
2018-03-23T16:41:07.576Z,58.70
2018-03-23T16:43:36.002Z,58.70
2018-03-23T16:46:03.629Z,58.60
2018-03-23T16:48:31.524Z,58.80
2018-03-23T16:50:59.280Z,58.90
2018-03-23T16:53:26.898Z,58.80
2018-03-23T16:55:54.542Z,58.90
2018-03-23T16:58:22.168Z,58.80
2018-03-23T17:00:50.570Z,59.10
2018-03-23T17:03:18.196Z,59.00
2018-03-23T17:05:45.855Z,58.90
2018-03-23T17:08:13.463Z,59.00
2018-03-23T17:10:41.075Z,59.10
2018-03-23T17:13:09.468Z,59.10
2018-03-23T17:15:37.093Z,59.00
2018-03-23T17:18:04.694Z,59.10
2018-03-23T17:20:33.344Z,59.10
2018-03-23T17:23:01.345Z,59.00
2018-03-23T17:25:28.948Z,59.10
2018-03-23T17:27:57.292Z,59.20
2018-03-23T17:30:24.870Z,59.20
2018-03-23T17:32:52.470Z,59.20
2018-03-23T17:35:20.838Z,59.50
2018-03-23T17:37:48.509Z,59.20
2018-03-23T17:40:16.161Z,59.20
2018-03-23T17:42:43.780Z,59.30
2018-03-23T17:45:12.572Z,59.30
2018-03-23T17:47:41.064Z,59.50
2018-03-23T17:50:13.300Z,59.20
2018-03-23T17:52:42.004Z,59.30
2018-03-23T17:55:10.188Z,59.20
2018-03-23T17:57:38.286Z,59.20
2018-03-23T18:00:05.956Z,59.20
2018-03-23T18:02:34.663Z,59.20
2018-03-23T18:05:02.523Z,59.20
2018-03-23T18:07:30.228Z,59.20
2018-03-23T18:09:57.826Z,59.30
2018-03-23T18:12:25.411Z,59.20
2018-03-23T18:14:53.783Z,59.40
2018-03-23T18:17:21.353Z,59.20
2018-03-23T18:19:48.957Z,59.40
2018-03-23T18:22:17.355Z,59.40
2018-03-23T18:24:44.970Z,59.40
2018-03-23T18:27:12.538Z,59.40
2018-03-23T18:29:40.882Z,59.50
2018-03-23T18:32:08.760Z,59.50
2018-03-23T18:34:36.316Z,59.40
2018-03-23T18:37:04.707Z,59.50
2018-03-23T18:39:33.082Z,59.50
2018-03-23T18:42:00.709Z,59.40
2018-03-23T18:44:29.223Z,59.50
2018-03-23T18:46:56.829Z,59.40
2018-03-23T18:49:25.565Z,59.60
2018-03-23T18:51:54.067Z,59.50
2018-03-23T18:54:21.767Z,59.50
2018-03-23T18:56:49.422Z,59.50
2018-03-23T18:59:18.243Z,59.50
2018-03-23T19:01:46.049Z,59.50
2018-03-23T19:04:13.668Z,59.60
2018-03-23T19:06:42.705Z,59.60
2018-03-23T19:09:11.545Z,59.60
2018-03-23T19:11:39.384Z,59.60
2018-03-23T19:14:07.084Z,59.70
2018-03-23T19:16:34.668Z,59.70
2018-03-23T19:19:03.039Z,59.90
2018-03-23T19:21:30.609Z,59.80
2018-03-23T19:23:58.220Z,59.90
2018-03-23T19:26:26.021Z,60.00
2018-03-23T19:28:53.643Z,59.90
2018-03-23T19:31:21.282Z,60.00
2018-03-23T19:33:49.188Z,60.00
2018-03-23T19:36:16.788Z,60.10
2018-03-23T19:38:45.212Z,60.20
2018-03-23T19:41:12.890Z,60.20
2018-03-23T19:43:40.464Z,60.30
2018-03-23T19:46:08.039Z,60.40
2018-03-23T19:48:36.364Z,60.40
2018-03-23T19:51:03.962Z,60.50
2018-03-23T19:53:32.369Z,60.80
2018-03-23T19:56:01.233Z,60.70
2018-03-23T19:58:29.516Z,60.60
2018-03-23T20:00:58.359Z,60.70
2018-03-23T20:03:26.066Z,60.60
2018-03-23T20:05:53.658Z,60.60
2018-03-23T20:08:22.284Z,60.80
2018-03-23T20:10:49.901Z,60.60
2018-03-23T20:13:17.603Z,61.00
2018-03-23T20:15:45.184Z,60.70
2018-03-23T20:18:18.430Z,60.70
2018-03-23T20:20:51.833Z,60.60
2018-03-23T20:23:19.443Z,60.70
2018-03-23T20:25:47.076Z,60.70
2018-03-23T20:28:34.154Z,60.90
2018-03-23T20:31:01.817Z,60.70
2018-03-23T20:33:29.770Z,60.80
2018-03-23T20:35:57.956Z,61.00
2018-03-23T20:38:26.215Z,61.10
2018-03-23T20:40:55.307Z,60.90
2018-03-23T20:43:24.173Z,61.10
2018-03-23T20:45:52.371Z,61.10
2018-03-23T20:48:21.329Z,61.10
2018-03-23T20:50:49.000Z,61.10
2018-03-23T20:53:17.177Z,61.00
2018-03-23T20:55:45.081Z,61.10
2018-03-23T20:58:13.283Z,61.10
2018-03-23T21:00:42.201Z,61.10
2018-03-23T21:03:10.323Z,61.10
2018-03-23T21:05:39.459Z,61.20
2018-03-23T21:08:07.626Z,61.30
2018-03-23T21:10:35.769Z,61.20
2018-03-23T21:13:04.720Z,61.40
2018-03-23T21:15:32.810Z,61.30
2018-03-23T21:18:01.000Z,61.40
2018-03-23T21:20:29.760Z,61.40
2018-03-23T21:22:59.213Z,61.50
2018-03-23T21:25:28.076Z,61.40
2018-03-23T21:27:56.974Z,61.70
2018-03-23T21:30:26.062Z,61.60
2018-03-23T21:32:54.206Z,61.70
2018-03-23T21:35:22.268Z,61.60
2018-03-23T21:37:51.253Z,61.70
2018-03-23T21:40:19.401Z,61.90
2018-03-23T21:42:48.532Z,61.90
2018-03-23T21:45:16.673Z,62.00
2018-03-23T21:47:44.924Z,62.10
2018-03-23T21:50:13.710Z,62.30
2018-03-23T21:52:41.753Z,62.10
2018-03-23T21:55:10.706Z,62.10
2018-03-23T21:57:39.117Z,62.20
2018-03-23T22:00:08.168Z,62.30
2018-03-23T22:02:37.312Z,62.30
2018-03-23T22:05:05.124Z,62.10
2018-03-23T22:07:33.486Z,62.20
2018-03-23T22:10:02.206Z,62.30
2018-03-23T22:12:29.911Z,62.50
2018-03-23T22:14:58.715Z,62.80
2018-03-23T22:17:26.772Z,62.60
2018-03-23T22:19:54.465Z,62.70
2018-03-23T22:22:22.237Z,62.90
2018-03-23T22:24:50.131Z,63.30
2018-03-23T22:27:19.070Z,63.10
2018-03-23T22:29:47.221Z,63.00
2018-03-23T22:32:16.526Z,62.80
2018-03-23T22:34:45.296Z,62.70
2018-03-23T22:37:14.303Z,62.70
2018-03-23T22:39:43.397Z,62.90
2018-03-23T22:42:12.420Z,62.80
2018-03-23T22:44:42.592Z,62.70
2018-03-23T22:47:11.133Z,62.80
2018-03-23T22:49:39.191Z,62.70
2018-03-23T22:52:07.033Z,62.80
2018-03-23T22:54:35.488Z,62.70
2018-03-23T22:57:03.137Z,62.70
2018-03-23T22:59:30.953Z,62.60
2018-03-23T23:01:59.426Z,62.60
2018-03-23T23:04:27.029Z,62.60
2018-03-23T23:06:54.618Z,62.40
2018-03-23T23:09:23.029Z,62.40
2018-03-23T23:11:50.765Z,62.30
2018-03-23T23:14:18.634Z,62.40
2018-03-23T23:16:46.361Z,62.40
2018-03-23T23:19:14.005Z,63.20
2018-03-23T23:21:41.682Z,62.40
2018-03-23T23:24:10.108Z,62.30
2018-03-23T23:26:38.620Z,62.10
2018-03-23T23:29:06.206Z,62.10
2018-03-23T23:31:33.886Z,62.10
2018-03-23T23:34:01.618Z,62.10
2018-03-23T23:36:29.332Z,62.10
2018-03-23T23:38:58.190Z,62.10
2018-03-23T23:41:25.814Z,62.10
2018-03-23T23:43:53.589Z,61.90
2018-03-23T23:46:21.322Z,61.80
2018-03-23T23:48:48.963Z,61.70
2018-03-23T23:51:17.587Z,61.80
2018-03-23T23:53:45.356Z,61.60
2018-03-23T23:56:13.086Z,61.80
2018-03-23T23:58:40.829Z,61.60
